createdAt,value
2022-11-06T00:18:28.042Z,7.77
2022-11-06T00:38:30.464Z,7.60
2022-11-06T00:58:33.033Z,7.49
2022-11-06T01:18:35.453Z,7.46
2022-11-06T02:39:52.171Z,6.97
2022-11-06T02:59:55.321Z,6.77
2022-11-06T03:19:57.764Z,6.50
2022-11-06T03:40:00.196Z,6.32
2022-11-06T04:00:02.621Z,5.88
2022-11-06T04:20:05.132Z,5.56
2022-11-06T04:40:07.566Z,5.27
2022-11-06T05:00:10.222Z,5.15
2022-11-06T05:20:13.149Z,4.99
2022-11-06T05:40:15.540Z,4.57
2022-11-06T06:00:18.180Z,4.37
2022-11-06T06:20:20.613Z,4.46
2022-11-06T06:40:23.080Z,4.54
2022-11-06T07:00:25.895Z,4.76
2022-11-06T07:20:28.373Z,5.17
2022-11-06T07:40:30.825Z,5.54
2022-11-06T08:00:33.230Z,5.96
2022-11-06T08:20:35.670Z,8.00
2022-11-06T08:40:38.158Z,8.65
2022-11-06T09:00:47.988Z,8.27
2022-11-06T09:20:50.963Z,8.33
2022-11-06T10:01:28.565Z,9.30
2022-11-06T10:21:31.463Z,10.53
2022-11-06T10:41:36.230Z,10.91
2022-11-06T11:22:24.888Z,12.28
2022-11-06T12:03:05.124Z,13.71
2022-11-06T12:23:07.572Z,13.36
2022-11-06T12:43:09.950Z,14.67
2022-11-06T13:03:12.591Z,14.98
2022-11-06T13:23:24.382Z,14.56
2022-11-06T13:43:26.829Z,13.80
2022-11-06T15:45:13.978Z,8.23
2022-11-06T16:05:16.436Z,7.56
2022-11-06T16:25:19.318Z,7.06
2022-11-06T16:45:21.826Z,6.66
2022-11-06T17:25:39.940Z,6.19
2022-11-06T17:45:42.520Z,5.97
2022-11-06T18:05:44.915Z,6.02
2022-11-06T18:25:47.297Z,6.02
2022-11-06T18:45:49.949Z,6.13
2022-11-06T19:05:54.991Z,6.08
2022-11-06T19:46:28.210Z,6.19
2022-11-06T20:06:33.525Z,6.37
2022-11-06T20:26:36.150Z,6.31
2022-11-06T20:46:39.418Z,7.10
2022-11-06T21:06:41.877Z,8.04
2022-11-06T21:26:44.531Z,8.42
2022-11-06T21:46:47.194Z,8.56
2022-11-06T22:06:49.638Z,8.89
2022-11-06T22:26:52.061Z,9.02
2022-11-06T22:46:54.473Z,9.11
2022-11-06T23:06:56.915Z,9.11
2022-11-06T23:26:59.317Z,8.46
2022-11-06T23:47:01.937Z,8.24
